sensor_id;sensor_type;location;lat;lon;timestamp;P1;durP1;ratioP1;P2;durP2;ratioP2
20689;SDS011;10504;48.762;8.996;2023-11-21T00:02:05;1.50;;;1.50;;
20689;SDS011;10504;48.762;8.996;2023-11-21T00:04:30;1.50;;;1.50;;
20689;SDS011;10504;48.762;8.996;2023-11-21T00:06:56;1.40;;;1.40;;
20689;SDS011;10504;48.762;8.996;2023-11-21T00:09:21;1.83;;;1.73;;
20689;SDS011;10504;48.762;8.996;2023-11-21T00:11:48;1.60;;;1.60;;
20689;SDS011;10504;48.762;8.996;2023-11-21T00:14:13;2.47;;;2.27;;
20689;SDS011;10504;48.762;8.996;2023-11-21T00:16:40;1.50;;;1.50;;
20689;SDS011;10504;48.762;8.996;2023-11-21T00:19:06;6.13;;;2.70;;
20689;SDS011;10504;48.762;8.996;2023-11-21T00:21:32;1.50;;;1.50;;
20689;SDS011;10504;48.762;8.996;2023-11-21T00:23:57;1.50;;;1.50;;
20689;SDS011;10504;48.762;8.996;2023-11-21T00:26:25;1.60;;;1.60;;
20689;SDS011;10504;48.762;8.996;2023-11-21T00:28:51;1.70;;;1.60;;
20689;SDS011;10504;48.762;8.996;2023-11-21T00:31:16;1.50;;;1.50;;
20689;SDS011;10504;48.762;8.996;2023-11-21T00:33:42;2.33;;;2.13;;
20689;SDS011;10504;48.762;8.996;2023-11-21T00:36:11;1.60;;;1.60;;
20689;SDS011;10504;48.762;8.996;2023-11-21T00:38:37;10.80;;;2.13;;
20689;SDS011;10504;48.762;8.996;2023-11-21T00:41:05;1.80;;;1.70;;
20689;SDS011;10504;48.762;8.996;2023-11-21T00:43:31;2.33;;;2.20;;
20689;SDS011;10504;48.762;8.996;2023-11-21T00:45:58;1.80;;;1.70;;
20689;SDS011;10504;48.762;8.996;2023-11-21T00:48:24;1.80;;;1.70;;
20689;SDS011;10504;48.762;8.996;2023-11-21T00:50:49;2.13;;;2.03;;
20689;SDS011;10504;48.762;8.996;2023-11-21T00:53:15;2.00;;;1.90;;
20689;SDS011;10504;48.762;8.996;2023-11-21T00:55:41;1.80;;;1.70;;
20689;SDS011;10504;48.762;8.996;2023-11-21T00:58:06;1.90;;;1.80;;
20689;SDS011;10504;48.762;8.996;2023-11-21T01:00:33;2.00;;;1.90;;
20689;SDS011;10504;48.762;8.996;2023-11-21T01:02:59;1.90;;;1.80;;
20689;SDS011;10504;48.762;8.996;2023-11-21T01:05:25;1.90;;;1.80;;
20689;SDS011;10504;48.762;8.996;2023-11-21T01:07:51;2.43;;;2.27;;
20689;SDS011;10504;48.762;8.996;2023-11-21T01:10:17;2.20;;;2.07;;
20689;SDS011;10504;48.762;8.996;2023-11-21T01:12:43;1.90;;;1.80;;
20689;SDS011;10504;48.762;8.996;2023-11-21T01:15:09;2.00;;;1.90;;
20689;SDS011;10504;48.762;8.996;2023-11-21T01:17:36;2.00;;;1.90;;
20689;SDS011;10504;48.762;8.996;2023-11-21T01:20:06;2.00;;;1.90;;
20689;SDS011;10504;48.762;8.996;2023-11-21T01:22:36;2.00;;;1.90;;
20689;SDS011;10504;48.762;8.996;2023-11-21T01:25:02;2.27;;;2.17;;
20689;SDS011;10504;48.762;8.996;2023-11-21T01:27:29;2.30;;;2.20;;
20689;SDS011;10504;48.762;8.996;2023-11-21T01:29:55;2.30;;;2.20;;
20689;SDS011;10504;48.762;8.996;2023-11-21T01:32:20;2.20;;;2.10;;
20689;SDS011;10504;48.762;8.996;2023-11-21T01:34:47;2.10;;;2.00;;
20689;SDS011;10504;48.762;8.996;2023-11-21T01:37:13;2.33;;;2.23;;
20689;SDS011;10504;48.762;8.996;2023-11-21T01:39:38;2.53;;;2.40;;
20689;SDS011;10504;48.762;8.996;2023-11-21T01:42:05;2.20;;;2.10;;
20689;SDS011;10504;48.762;8.996;2023-11-21T01:44:31;2.20;;;2.10;;
20689;SDS011;10504;48.762;8.996;2023-11-21T01:46:56;2.40;;;2.30;;
20689;SDS011;10504;48.762;8.996;2023-11-21T01:49:22;2.20;;;2.10;;
20689;SDS011;10504;48.762;8.996;2023-11-21T01:51:49;2.10;;;2.00;;
20689;SDS011;10504;48.762;8.996;2023-11-21T01:54:16;2.20;;;2.10;;
20689;SDS011;10504;48.762;8.996;2023-11-21T01:56:43;2.20;;;2.10;;
20689;SDS011;10504;48.762;8.996;2023-11-21T01:59:11;2.20;;;2.10;;
20689;SDS011;10504;48.762;8.996;2023-11-21T02:01:39;2.10;;;2.00;;
20689;SDS011;10504;48.762;8.996;2023-11-21T02:04:06;2.20;;;2.10;;
20689;SDS011;10504;48.762;8.996;2023-11-21T02:06:33;2.37;;;2.27;;
20689;SDS011;10504;48.762;8.996;2023-11-21T02:08:59;2.20;;;2.10;;
20689;SDS011;10504;48.762;8.996;2023-11-21T02:11:25;2.30;;;2.20;;
20689;SDS011;10504;48.762;8.996;2023-11-21T02:13:52;2.70;;;2.50;;
20689;SDS011;10504;48.762;8.996;2023-11-21T02:16:19;2.27;;;2.17;;
20689;SDS011;10504;48.762;8.996;2023-11-21T02:18:46;2.10;;;2.00;;
20689;SDS011;10504;48.762;8.996;2023-11-21T02:21:13;2.30;;;2.20;;
20689;SDS011;10504;48.762;8.996;2023-11-21T02:23:39;2.30;;;2.20;;
20689;SDS011;10504;48.762;8.996;2023-11-21T02:26:09;2.10;;;2.00;;
20689;SDS011;10504;48.762;8.996;2023-11-21T02:28:35;2.10;;;2.00;;
20689;SDS011;10504;48.762;8.996;2023-11-21T02:31:01;2.40;;;2.30;;
20689;SDS011;10504;48.762;8.996;2023-11-21T02:33:29;2.40;;;2.30;;
20689;SDS011;10504;48.762;8.996;2023-11-21T02:35:57;3.37;;;2.70;;
20689;SDS011;10504;48.762;8.996;2023-11-21T02:38:24;2.47;;;2.37;;
20689;SDS011;10504;48.762;8.996;2023-11-21T02:40:49;2.60;;;2.50;;
20689;SDS011;10504;48.762;8.996;2023-11-21T02:43:15;2.57;;;2.47;;
20689;SDS011;10504;48.762;8.996;2023-11-21T02:45:41;2.70;;;2.60;;
20689;SDS011;10504;48.762;8.996;2023-11-21T02:48:07;2.80;;;2.70;;
20689;SDS011;10504;48.762;8.996;2023-11-21T02:50:32;2.40;;;2.30;;
20689;SDS011;10504;48.762;8.996;2023-11-21T02:53:00;2.60;;;2.50;;
20689;SDS011;10504;48.762;8.996;2023-11-21T02:55:26;2.80;;;2.70;;
20689;SDS011;10504;48.762;8.996;2023-11-21T02:57:52;2.60;;;2.50;;
20689;SDS011;10504;48.762;8.996;2023-11-21T03:00:18;2.50;;;2.40;;
20689;SDS011;10504;48.762;8.996;2023-11-21T03:02:44;2.50;;;2.40;;
20689;SDS011;10504;48.762;8.996;2023-11-21T03:05:10;2.60;;;2.50;;
20689;SDS011;10504;48.762;8.996;2023-11-21T03:07:36;2.50;;;2.40;;
20689;SDS011;10504;48.762;8.996;2023-11-21T03:10:03;2.50;;;2.40;;
20689;SDS011;10504;48.762;8.996;2023-11-21T03:12:29;2.50;;;2.40;;
20689;SDS011;10504;48.762;8.996;2023-11-21T03:14:55;2.50;;;2.40;;
20689;SDS011;10504;48.762;8.996;2023-11-21T03:17:21;2.60;;;2.50;;
20689;SDS011;10504;48.762;8.996;2023-11-21T03:19:46;2.60;;;2.50;;
20689;SDS011;10504;48.762;8.996;2023-11-21T03:22:12;2.60;;;2.50;;
20689;SDS011;10504;48.762;8.996;2023-11-21T03:24:38;2.60;;;2.50;;
20689;SDS011;10504;48.762;8.996;2023-11-21T03:27:04;2.60;;;2.50;;
20689;SDS011;10504;48.762;8.996;2023-11-21T03:29:30;2.60;;;2.50;;
20689;SDS011;10504;48.762;8.996;2023-11-21T03:31:55;2.60;;;2.50;;
20689;SDS011;10504;48.762;8.996;2023-11-21T03:34:25;2.50;;;2.40;;
20689;SDS011;10504;48.762;8.996;2023-11-21T03:36:52;2.90;;;2.80;;
20689;SDS011;10504;48.762;8.996;2023-11-21T03:39:19;2.70;;;2.60;;
20689;SDS011;10504;48.762;8.996;2023-11-21T03:41:45;2.60;;;2.50;;
20689;SDS011;10504;48.762;8.996;2023-11-21T03:44:11;2.77;;;2.67;;
20689;SDS011;10504;48.762;8.996;2023-11-21T03:46:36;2.70;;;2.60;;
20689;SDS011;10504;48.762;8.996;2023-11-21T03:49:02;3.93;;;3.43;;
20689;SDS011;10504;48.762;8.996;2023-11-21T03:51:27;3.30;;;3.10;;
20689;SDS011;10504;48.762;8.996;2023-11-21T03:53:53;2.80;;;2.70;;
20689;SDS011;10504;48.762;8.996;2023-11-21T03:56:19;2.90;;;2.80;;
20689;SDS011;10504;48.762;8.996;2023-11-21T03:58:47;2.70;;;2.60;;
20689;SDS011;10504;48.762;8.996;2023-11-21T04:01:23;2.70;;;2.60;;
20689;SDS011;10504;48.762;8.996;2023-11-21T04:03:49;3.03;;;2.90;;
20689;SDS011;10504;48.762;8.996;2023-11-21T04:06:16;2.90;;;2.80;;
20689;SDS011;10504;48.762;8.996;2023-11-21T04:08:43;3.00;;;2.90;;
20689;SDS011;10504;48.762;8.996;2023-11-21T04:11:09;3.20;;;3.00;;
20689;SDS011;10504;48.762;8.996;2023-11-21T04:13:39;3.00;;;2.90;;
20689;SDS011;10504;48.762;8.996;2023-11-21T04:16:06;3.60;;;3.40;;
20689;SDS011;10504;48.762;8.996;2023-11-21T04:18:35;3.70;;;3.40;;
20689;SDS011;10504;48.762;8.996;2023-11-21T04:21:02;3.10;;;2.93;;
20689;SDS011;10504;48.762;8.996;2023-11-21T04:23:28;3.07;;;2.90;;
20689;SDS011;10504;48.762;8.996;2023-11-21T04:26:00;3.00;;;2.90;;
20689;SDS011;10504;48.762;8.996;2023-11-21T04:28:27;3.00;;;2.90;;
20689;SDS011;10504;48.762;8.996;2023-11-21T04:30:53;3.23;;;3.03;;
20689;SDS011;10504;48.762;8.996;2023-11-21T04:36:06;3.00;;;2.90;;
20689;SDS011;10504;48.762;8.996;2023-11-21T04:38:32;3.10;;;3.00;;
20689;SDS011;10504;48.762;8.996;2023-11-21T04:40:58;3.40;;;3.20;;
20689;SDS011;10504;48.762;8.996;2023-11-21T04:43:23;3.30;;;3.10;;
20689;SDS011;10504;48.762;8.996;2023-11-21T04:45:49;3.37;;;3.17;;
20689;SDS011;10504;48.762;8.996;2023-11-21T04:48:15;3.40;;;3.20;;
20689;SDS011;10504;48.762;8.996;2023-11-21T04:50:40;3.60;;;3.40;;
20689;SDS011;10504;48.762;8.996;2023-11-21T04:53:06;3.20;;;3.00;;
20689;SDS011;10504;48.762;8.996;2023-11-21T04:55:31;3.00;;;2.90;;
20689;SDS011;10504;48.762;8.996;2023-11-21T04:57:57;3.30;;;3.10;;
20689;SDS011;10504;48.762;8.996;2023-11-21T05:00:23;3.20;;;3.00;;
20689;SDS011;10504;48.762;8.996;2023-11-21T05:02:48;3.00;;;2.90;;
20689;SDS011;10504;48.762;8.996;2023-11-21T05:05:14;3.40;;;3.20;;
20689;SDS011;10504;48.762;8.996;2023-11-21T05:07:40;3.20;;;3.00;;
20689;SDS011;10504;48.762;8.996;2023-11-21T05:10:08;3.43;;;3.23;;
20689;SDS011;10504;48.762;8.996;2023-11-21T05:12:37;3.40;;;3.20;;
20689;SDS011;10504;48.762;8.996;2023-11-21T05:15:06;3.17;;;3.00;;
20689;SDS011;10504;48.762;8.996;2023-11-21T05:17:36;3.30;;;3.10;;
20689;SDS011;10504;48.762;8.996;2023-11-21T05:20:03;3.40;;;3.20;;
20689;SDS011;10504;48.762;8.996;2023-11-21T05:22:33;3.30;;;3.10;;
20689;SDS011;10504;48.762;8.996;2023-11-21T05:24:59;3.30;;;3.10;;
20689;SDS011;10504;48.762;8.996;2023-11-21T05:27:25;3.83;;;3.60;;
20689;SDS011;10504;48.762;8.996;2023-11-21T05:29:50;3.20;;;3.00;;
20689;SDS011;10504;48.762;8.996;2023-11-21T05:32:16;3.10;;;2.90;;
20689;SDS011;10504;48.762;8.996;2023-11-21T05:34:42;3.27;;;3.07;;
20689;SDS011;10504;48.762;8.996;2023-11-21T05:37:08;3.30;;;3.10;;
20689;SDS011;10504;48.762;8.996;2023-11-21T05:39:33;3.17;;;3.00;;
20689;SDS011;10504;48.762;8.996;2023-11-21T05:42:00;3.43;;;3.23;;
20689;SDS011;10504;48.762;8.996;2023-11-21T05:44:26;3.23;;;3.03;;
20689;SDS011;10504;48.762;8.996;2023-11-21T05:46:52;3.40;;;3.20;;
20689;SDS011;10504;48.762;8.996;2023-11-21T05:49:18;3.20;;;3.00;;
20689;SDS011;10504;48.762;8.996;2023-11-21T05:51:46;3.40;;;3.20;;
20689;SDS011;10504;48.762;8.996;2023-11-21T05:54:12;3.40;;;3.20;;
20689;SDS011;10504;48.762;8.996;2023-11-21T05:56:38;3.37;;;3.17;;
20689;SDS011;10504;48.762;8.996;2023-11-21T05:59:03;3.97;;;3.67;;
20689;SDS011;10504;48.762;8.996;2023-11-21T06:01:29;3.50;;;3.30;;
20689;SDS011;10504;48.762;8.996;2023-11-21T06:03:54;3.40;;;3.20;;
20689;SDS011;10504;48.762;8.996;2023-11-21T06:06:21;3.40;;;3.20;;
20689;SDS011;10504;48.762;8.996;2023-11-21T06:08:48;3.40;;;3.20;;
20689;SDS011;10504;48.762;8.996;2023-11-21T06:11:14;3.53;;;3.33;;
20689;SDS011;10504;48.762;8.996;2023-11-21T06:13:41;3.70;;;3.50;;
20689;SDS011;10504;48.762;8.996;2023-11-21T06:16:07;3.83;;;3.63;;
20689;SDS011;10504;48.762;8.996;2023-11-21T06:18:36;3.80;;;3.60;;
20689;SDS011;10504;48.762;8.996;2023-11-21T06:21:02;4.70;;;4.27;;
20689;SDS011;10504;48.762;8.996;2023-11-21T06:23:27;3.80;;;3.60;;
20689;SDS011;10504;48.762;8.996;2023-11-21T06:25:53;3.60;;;3.40;;
20689;SDS011;10504;48.762;8.996;2023-11-21T06:28:19;3.80;;;3.60;;
20689;SDS011;10504;48.762;8.996;2023-11-21T06:30:44;4.03;;;3.83;;
20689;SDS011;10504;48.762;8.996;2023-11-21T06:33:10;3.70;;;3.50;;
20689;SDS011;10504;48.762;8.996;2023-11-21T06:35:36;4.10;;;3.90;;
20689;SDS011;10504;48.762;8.996;2023-11-21T06:38:02;3.73;;;3.53;;
20689;SDS011;10504;48.762;8.996;2023-11-21T06:40:28;3.63;;;3.43;;
20689;SDS011;10504;48.762;8.996;2023-11-21T06:42:53;3.70;;;3.50;;
20689;SDS011;10504;48.762;8.996;2023-11-21T06:45:19;3.70;;;3.50;;
20689;SDS011;10504;48.762;8.996;2023-11-21T06:47:45;3.80;;;3.60;;
20689;SDS011;10504;48.762;8.996;2023-11-21T06:50:11;4.00;;;3.80;;
20689;SDS011;10504;48.762;8.996;2023-11-21T06:52:36;5.37;;;4.97;;
20689;SDS011;10504;48.762;8.996;2023-11-21T06:55:03;3.60;;;3.40;;
20689;SDS011;10504;48.762;8.996;2023-11-21T06:57:29;3.90;;;3.70;;
20689;SDS011;10504;48.762;8.996;2023-11-21T06:59:56;3.90;;;3.70;;
20689;SDS011;10504;48.762;8.996;2023-11-21T07:02:22;3.90;;;3.70;;
20689;SDS011;10504;48.762;8.996;2023-11-21T07:04:48;3.90;;;3.70;;
20689;SDS011;10504;48.762;8.996;2023-11-21T07:07:13;4.50;;;4.20;;
20689;SDS011;10504;48.762;8.996;2023-11-21T07:09:39;4.10;;;3.90;;
20689;SDS011;10504;48.762;8.996;2023-11-21T07:12:05;3.90;;;3.70;;
20689;SDS011;10504;48.762;8.996;2023-11-21T07:14:33;4.10;;;3.90;;
20689;SDS011;10504;48.762;8.996;2023-11-21T07:17:04;4.10;;;3.90;;
20689;SDS011;10504;48.762;8.996;2023-11-21T07:19:29;3.90;;;3.70;;
20689;SDS011;10504;48.762;8.996;2023-11-21T07:21:55;4.23;;;4.03;;
20689;SDS011;10504;48.762;8.996;2023-11-21T07:24:21;4.17;;;3.97;;
20689;SDS011;10504;48.762;8.996;2023-11-21T07:26:48;4.20;;;4.00;;
20689;SDS011;10504;48.762;8.996;2023-11-21T07:29:13;4.80;;;4.50;;
20689;SDS011;10504;48.762;8.996;2023-11-21T07:31:39;4.33;;;4.10;;
20689;SDS011;10504;48.762;8.996;2023-11-21T07:34:06;4.30;;;4.10;;
20689;SDS011;10504;48.762;8.996;2023-11-21T07:36:33;4.60;;;4.30;;
20689;SDS011;10504;48.762;8.996;2023-11-21T07:38:59;4.17;;;3.97;;
20689;SDS011;10504;48.762;8.996;2023-11-21T07:41:25;4.07;;;3.87;;
20689;SDS011;10504;48.762;8.996;2023-11-21T07:43:51;4.10;;;3.90;;
20689;SDS011;10504;48.762;8.996;2023-11-21T07:46:17;4.00;;;3.80;;
20689;SDS011;10504;48.762;8.996;2023-11-21T07:48:43;3.70;;;3.50;;
20689;SDS011;10504;48.762;8.996;2023-11-21T07:51:08;5.03;;;4.63;;
20689;SDS011;10504;48.762;8.996;2023-11-21T07:53:35;3.80;;;3.60;;
20689;SDS011;10504;48.762;8.996;2023-11-21T07:56:08;4.10;;;3.90;;
20689;SDS011;10504;48.762;8.996;2023-11-21T07:58:34;3.90;;;3.70;;
20689;SDS011;10504;48.762;8.996;2023-11-21T08:01:00;9.73;;;3.97;;
20689;SDS011;10504;48.762;8.996;2023-11-21T08:03:26;3.90;;;3.70;;
20689;SDS011;10504;48.762;8.996;2023-11-21T08:05:54;3.80;;;3.60;;
20689;SDS011;10504;48.762;8.996;2023-11-21T08:08:20;3.80;;;3.60;;
20689;SDS011;10504;48.762;8.996;2023-11-21T08:10:46;3.90;;;3.70;;
20689;SDS011;10504;48.762;8.996;2023-11-21T08:13:13;4.00;;;3.80;;
20689;SDS011;10504;48.762;8.996;2023-11-21T08:15:40;4.10;;;3.90;;
20689;SDS011;10504;48.762;8.996;2023-11-21T08:18:10;4.50;;;4.20;;
20689;SDS011;10504;48.762;8.996;2023-11-21T08:20:35;4.20;;;4.00;;
20689;SDS011;10504;48.762;8.996;2023-11-21T08:23:03;4.50;;;4.23;;
20689;SDS011;10504;48.762;8.996;2023-11-21T08:25:30;4.30;;;4.07;;
20689;SDS011;10504;48.762;8.996;2023-11-21T08:27:56;4.50;;;4.20;;
20689;SDS011;10504;48.762;8.996;2023-11-21T08:30:22;4.80;;;4.50;;
20689;SDS011;10504;48.762;8.996;2023-11-21T08:32:49;4.70;;;4.40;;
20689;SDS011;10504;48.762;8.996;2023-11-21T08:35:17;4.90;;;4.60;;
20689;SDS011;10504;48.762;8.996;2023-11-21T08:37:42;4.20;;;4.00;;
20689;SDS011;10504;48.762;8.996;2023-11-21T08:40:08;4.80;;;4.50;;
20689;SDS011;10504;48.762;8.996;2023-11-21T08:42:37;4.50;;;4.20;;
20689;SDS011;10504;48.762;8.996;2023-11-21T08:45:03;4.30;;;4.10;;
20689;SDS011;10504;48.762;8.996;2023-11-21T08:47:29;4.30;;;4.10;;
20689;SDS011;10504;48.762;8.996;2023-11-21T08:49:55;4.60;;;4.30;;
20689;SDS011;10504;48.762;8.996;2023-11-21T08:52:22;4.20;;;4.00;;
20689;SDS011;10504;48.762;8.996;2023-11-21T08:54:48;4.70;;;4.40;;
20689;SDS011;10504;48.762;8.996;2023-11-21T08:57:21;4.80;;;4.50;;
20689;SDS011;10504;48.762;8.996;2023-11-21T08:59:47;5.00;;;4.70;;
20689;SDS011;10504;48.762;8.996;2023-11-21T09:02:13;5.00;;;4.70;;
20689;SDS011;10504;48.762;8.996;2023-11-21T09:04:38;5.03;;;4.73;;
20689;SDS011;10504;48.762;8.996;2023-11-21T09:07:04;5.20;;;4.90;;
20689;SDS011;10504;48.762;8.996;2023-11-21T09:09:30;5.10;;;4.80;;
20689;SDS011;10504;48.762;8.996;2023-11-21T09:11:56;5.10;;;4.80;;
20689;SDS011;10504;48.762;8.996;2023-11-21T09:14:22;5.20;;;4.90;;
20689;SDS011;10504;48.762;8.996;2023-11-21T09:16:47;5.20;;;4.80;;
20689;SDS011;10504;48.762;8.996;2023-11-21T09:19:14;4.80;;;4.50;;
20689;SDS011;10504;48.762;8.996;2023-11-21T09:21:40;4.80;;;4.50;;
20689;SDS011;10504;48.762;8.996;2023-11-21T09:24:06;5.00;;;4.70;;
20689;SDS011;10504;48.762;8.996;2023-11-21T09:26:34;4.80;;;4.50;;
20689;SDS011;10504;48.762;8.996;2023-11-21T09:28:59;4.90;;;4.60;;
20689;SDS011;10504;48.762;8.996;2023-11-21T09:31:27;5.03;;;4.73;;
20689;SDS011;10504;48.762;8.996;2023-11-21T09:33:52;5.83;;;5.43;;
20689;SDS011;10504;48.762;8.996;2023-11-21T09:36:18;4.50;;;4.30;;
20689;SDS011;10504;48.762;8.996;2023-11-21T09:38:44;4.70;;;4.40;;
20689;SDS011;10504;48.762;8.996;2023-11-21T09:41:11;5.00;;;4.70;;
20689;SDS011;10504;48.762;8.996;2023-11-21T09:43:46;4.93;;;4.63;;
20689;SDS011;10504;48.762;8.996;2023-11-21T09:46:14;5.30;;;5.00;;
20689;SDS011;10504;48.762;8.996;2023-11-21T09:48:45;5.40;;;5.10;;
20689;SDS011;10504;48.762;8.996;2023-11-21T09:51:15;5.20;;;4.90;;
20689;SDS011;10504;48.762;8.996;2023-11-21T09:53:44;6.40;;;5.80;;
20689;SDS011;10504;48.762;8.996;2023-11-21T09:56:14;5.73;;;5.33;;
20689;SDS011;10504;48.762;8.996;2023-11-21T09:58:44;5.40;;;5.10;;
20689;SDS011;10504;48.762;8.996;2023-11-21T10:01:10;5.30;;;5.00;;
20689;SDS011;10504;48.762;8.996;2023-11-21T10:03:38;5.40;;;5.10;;
20689;SDS011;10504;48.762;8.996;2023-11-21T10:06:04;6.37;;;5.97;;
20689;SDS011;10504;48.762;8.996;2023-11-21T10:08:31;5.40;;;5.10;;
20689;SDS011;10504;48.762;8.996;2023-11-21T10:10:58;5.70;;;5.37;;
20689;SDS011;10504;48.762;8.996;2023-11-21T10:13:24;5.60;;;5.30;;
20689;SDS011;10504;48.762;8.996;2023-11-21T10:15:55;5.50;;;5.20;;
20689;SDS011;10504;48.762;8.996;2023-11-21T10:18:22;5.80;;;5.50;;
20689;SDS011;10504;48.762;8.996;2023-11-21T10:20:50;5.70;;;5.40;;
20689;SDS011;10504;48.762;8.996;2023-11-21T10:23:19;6.17;;;5.77;;
20689;SDS011;10504;48.762;8.996;2023-11-21T10:25:46;5.67;;;5.37;;
20689;SDS011;10504;48.762;8.996;2023-11-21T10:28:12;5.80;;;5.50;;
20689;SDS011;10504;48.762;8.996;2023-11-21T10:30:38;5.70;;;5.40;;
20689;SDS011;10504;48.762;8.996;2023-11-21T10:33:05;7.13;;;6.53;;
20689;SDS011;10504;48.762;8.996;2023-11-21T10:38:19;5.90;;;5.50;;
20689;SDS011;10504;48.762;8.996;2023-11-21T10:40:49;5.30;;;5.00;;
20689;SDS011;10504;48.762;8.996;2023-11-21T10:43:15;6.07;;;5.67;;
20689;SDS011;10504;48.762;8.996;2023-11-21T10:45:42;5.97;;;5.57;;
20689;SDS011;10504;48.762;8.996;2023-11-21T10:48:15;5.93;;;5.57;;
20689;SDS011;10504;48.762;8.996;2023-11-21T10:50:41;6.20;;;5.80;;
20689;SDS011;10504;48.762;8.996;2023-11-21T10:53:08;5.67;;;5.37;;
20689;SDS011;10504;48.762;8.996;2023-11-21T10:55:34;5.77;;;5.47;;
20689;SDS011;10504;48.762;8.996;2023-11-21T10:58:01;6.03;;;5.63;;
20689;SDS011;10504;48.762;8.996;2023-11-21T11:00:29;5.50;;;5.20;;
20689;SDS011;10504;48.762;8.996;2023-11-21T11:02:55;5.53;;;5.23;;
20689;SDS011;10504;48.762;8.996;2023-11-21T11:05:24;5.60;;;5.30;;
20689;SDS011;10504;48.762;8.996;2023-11-21T11:07:59;6.27;;;5.77;;
20689;SDS011;10504;48.762;8.996;2023-11-21T11:10:32;5.53;;;5.13;;
20689;SDS011;10504;48.762;8.996;2023-11-21T11:12:59;5.77;;;5.43;;
20689;SDS011;10504;48.762;8.996;2023-11-21T11:15:25;5.60;;;5.30;;
20689;SDS011;10504;48.762;8.996;2023-11-21T11:17:51;5.70;;;5.40;;
20689;SDS011;10504;48.762;8.996;2023-11-21T11:20:21;5.90;;;5.60;;
20689;SDS011;10504;48.762;8.996;2023-11-21T11:28:07;6.43;;;6.03;;
20689;SDS011;10504;48.762;8.996;2023-11-21T11:36:37;6.10;;;5.70;;
20689;SDS011;10504;48.762;8.996;2023-11-21T11:42:16;6.30;;;5.90;;
20689;SDS011;10504;48.762;8.996;2023-11-21T11:55:12;6.33;;;5.93;;
20689;SDS011;10504;48.762;8.996;2023-11-21T11:57:42;6.47;;;6.07;;
20689;SDS011;10504;48.762;8.996;2023-11-21T12:00:15;6.30;;;5.90;;
20689;SDS011;10504;48.762;8.996;2023-11-21T12:02:53;6.47;;;6.07;;
20689;SDS011;10504;48.762;8.996;2023-11-21T12:05:22;6.90;;;6.40;;
20689;SDS011;10504;48.762;8.996;2023-11-21T12:07:52;6.43;;;6.03;;
20689;SDS011;10504;48.762;8.996;2023-11-21T12:10:19;7.10;;;6.60;;
20689;SDS011;10504;48.762;8.996;2023-11-21T12:12:48;7.23;;;6.73;;
20689;SDS011;10504;48.762;8.996;2023-11-21T12:15:15;6.70;;;6.30;;
20689;SDS011;10504;48.762;8.996;2023-11-21T12:17:42;7.30;;;6.80;;
20689;SDS011;10504;48.762;8.996;2023-11-21T12:20:08;7.40;;;6.90;;
20689;SDS011;10504;48.762;8.996;2023-11-21T12:22:43;7.37;;;6.87;;
20689;SDS011;10504;48.762;8.996;2023-11-21T12:25:16;7.20;;;6.80;;
20689;SDS011;10504;48.762;8.996;2023-11-21T12:27:46;7.00;;;6.60;;
20689;SDS011;10504;48.762;8.996;2023-11-21T12:30:23;8.20;;;7.70;;
20689;SDS011;10504;48.762;8.996;2023-11-21T12:32:53;7.30;;;6.90;;
20689;SDS011;10504;48.762;8.996;2023-11-21T12:35:31;7.67;;;7.17;;
20689;SDS011;10504;48.762;8.996;2023-11-21T12:38:00;7.80;;;7.30;;
20689;SDS011;10504;48.762;8.996;2023-11-21T12:40:34;7.33;;;6.93;;
20689;SDS011;10504;48.762;8.996;2023-11-21T12:43:00;8.07;;;7.57;;
20689;SDS011;10504;48.762;8.996;2023-11-21T12:45:29;7.30;;;6.90;;
20689;SDS011;10504;48.762;8.996;2023-11-21T12:47:59;7.17;;;6.77;;
20689;SDS011;10504;48.762;8.996;2023-11-21T12:50:30;7.30;;;6.90;;
20689;SDS011;10504;48.762;8.996;2023-11-21T12:52:59;7.23;;;6.83;;
20689;SDS011;10504;48.762;8.996;2023-11-21T12:55:29;7.70;;;7.20;;
20689;SDS011;10504;48.762;8.996;2023-11-21T12:58:02;7.90;;;7.40;;
20689;SDS011;10504;48.762;8.996;2023-11-21T13:00:36;7.10;;;6.70;;
20689;SDS011;10504;48.762;8.996;2023-11-21T13:03:13;7.70;;;7.10;;
20689;SDS011;10504;48.762;8.996;2023-11-21T13:05:50;7.43;;;6.93;;
20689;SDS011;10504;48.762;8.996;2023-11-21T13:08:20;7.53;;;7.00;;
20689;SDS011;10504;48.762;8.996;2023-11-21T13:10:51;7.67;;;7.07;;
20689;SDS011;10504;48.762;8.996;2023-11-21T13:13:19;7.00;;;6.60;;
20689;SDS011;10504;48.762;8.996;2023-11-21T13:15:48;7.00;;;6.60;;
20689;SDS011;10504;48.762;8.996;2023-11-21T13:18:17;7.53;;;7.03;;
20689;SDS011;10504;48.762;8.996;2023-11-21T13:20:44;7.63;;;7.13;;
20689;SDS011;10504;48.762;8.996;2023-11-21T13:23:11;7.40;;;6.90;;
20689;SDS011;10504;48.762;8.996;2023-11-21T13:25:37;7.40;;;6.90;;
20689;SDS011;10504;48.762;8.996;2023-11-21T13:28:06;7.00;;;6.60;;
20689;SDS011;10504;48.762;8.996;2023-11-21T13:30:32;6.70;;;6.30;;
20689;SDS011;10504;48.762;8.996;2023-11-21T13:33:03;7.00;;;6.60;;
20689;SDS011;10504;48.762;8.996;2023-11-21T13:35:35;7.10;;;6.67;;
20689;SDS011;10504;48.762;8.996;2023-11-21T13:40:34;6.90;;;6.50;;
20689;SDS011;10504;48.762;8.996;2023-11-21T13:43:07;7.13;;;6.70;;
20689;SDS011;10504;48.762;8.996;2023-11-21T13:45:38;6.70;;;6.30;;
20689;SDS011;10504;48.762;8.996;2023-11-21T13:48:08;6.87;;;6.47;;
20689;SDS011;10504;48.762;8.996;2023-11-21T13:50:36;6.47;;;6.07;;
20689;SDS011;10504;48.762;8.996;2023-11-21T13:53:02;6.17;;;5.77;;
20689;SDS011;10504;48.762;8.996;2023-11-21T13:55:35;6.10;;;5.70;;
20689;SDS011;10504;48.762;8.996;2023-11-21T13:58:02;6.80;;;6.40;;
20689;SDS011;10504;48.762;8.996;2023-11-21T14:00:29;7.00;;;6.50;;
20689;SDS011;10504;48.762;8.996;2023-11-21T14:03:09;6.40;;;6.00;;
20689;SDS011;10504;48.762;8.996;2023-11-21T14:05:42;7.00;;;6.60;;
20689;SDS011;10504;48.762;8.996;2023-11-21T14:08:09;6.67;;;6.27;;
20689;SDS011;10504;48.762;8.996;2023-11-21T14:10:37;6.30;;;5.90;;
20689;SDS011;10504;48.762;8.996;2023-11-21T14:13:08;6.30;;;5.90;;
20689;SDS011;10504;48.762;8.996;2023-11-21T14:15:35;6.67;;;6.27;;
20689;SDS011;10504;48.762;8.996;2023-11-21T14:18:06;6.50;;;6.10;;
20689;SDS011;10504;48.762;8.996;2023-11-21T14:20:35;6.23;;;5.83;;
20689;SDS011;10504;48.762;8.996;2023-11-21T14:23:02;6.40;;;6.00;;
20689;SDS011;10504;48.762;8.996;2023-11-21T14:25:30;6.60;;;6.20;;
20689;SDS011;10504;48.762;8.996;2023-11-21T14:27:57;6.67;;;6.27;;
20689;SDS011;10504;48.762;8.996;2023-11-21T14:30:22;6.43;;;6.03;;
20689;SDS011;10504;48.762;8.996;2023-11-21T14:32:48;6.70;;;6.30;;
20689;SDS011;10504;48.762;8.996;2023-11-21T14:35:15;6.30;;;5.90;;
20689;SDS011;10504;48.762;8.996;2023-11-21T14:37:41;6.60;;;6.20;;
20689;SDS011;10504;48.762;8.996;2023-11-21T14:40:07;6.80;;;6.40;;
20689;SDS011;10504;48.762;8.996;2023-11-21T14:42:34;6.83;;;6.43;;
20689;SDS011;10504;48.762;8.996;2023-11-21T14:45:02;6.80;;;6.40;;
20689;SDS011;10504;48.762;8.996;2023-11-21T14:47:31;6.50;;;6.10;;
20689;SDS011;10504;48.762;8.996;2023-11-21T14:49:59;6.20;;;5.80;;
20689;SDS011;10504;48.762;8.996;2023-11-21T14:52:47;6.30;;;5.90;;
20689;SDS011;10504;48.762;8.996;2023-11-21T14:55:24;6.37;;;5.97;;
20689;SDS011;10504;48.762;8.996;2023-11-21T14:58:21;5.90;;;5.60;;
20689;SDS011;10504;48.762;8.996;2023-11-21T15:00:56;6.10;;;5.73;;
20689;SDS011;10504;48.762;8.996;2023-11-21T15:03:25;6.30;;;5.90;;
20689;SDS011;10504;48.762;8.996;2023-11-21T15:05:58;6.40;;;6.00;;
20689;SDS011;10504;48.762;8.996;2023-11-21T15:08:35;6.67;;;6.27;;
20689;SDS011;10504;48.762;8.996;2023-11-21T15:11:01;6.80;;;6.40;;
20689;SDS011;10504;48.762;8.996;2023-11-21T15:13:32;6.97;;;6.47;;
20689;SDS011;10504;48.762;8.996;2023-11-21T15:15:58;6.70;;;6.30;;
20689;SDS011;10504;48.762;8.996;2023-11-21T15:18:32;6.47;;;6.07;;
20689;SDS011;10504;48.762;8.996;2023-11-21T15:20:59;6.80;;;6.40;;
20689;SDS011;10504;48.762;8.996;2023-11-21T15:23:25;6.80;;;6.40;;